createdAt,value
2019-05-12T00:01:12.565Z,94.40
2019-05-12T00:03:45.416Z,94.30
2019-05-12T00:06:18.351Z,94.50
2019-05-12T00:08:51.416Z,94.30
2019-05-12T00:11:24.387Z,94.50
2019-05-12T00:13:58.710Z,94.50
2019-05-12T00:16:31.868Z,93.70
2019-05-12T00:19:04.961Z,92.50
2019-05-12T00:21:39.855Z,91.30
2019-05-12T00:24:12.613Z,88.30
2019-05-12T00:26:47.795Z,89.00
2019-05-12T00:29:20.720Z,88.50
2019-05-12T00:31:53.565Z,87.60
2019-05-12T00:34:28.696Z,86.50
2019-05-12T00:37:01.261Z,85.20
2019-05-12T00:39:34.252Z,84.60
2019-05-12T00:42:07.800Z,84.70
2019-05-12T00:44:40.825Z,86.80
2019-05-12T00:47:13.677Z,88.60
2019-05-12T00:49:48.904Z,89.20
2019-05-12T00:52:21.239Z,90.30
2019-05-12T00:54:55.170Z,90.90
2019-05-12T00:57:28.627Z,91.70
2019-05-12T01:00:01.595Z,92.30
2019-05-12T01:02:34.415Z,92.30
2019-05-12T01:05:08.570Z,91.40
2019-05-12T01:07:41.665Z,90.70
2019-05-12T01:10:14.522Z,88.90
2019-05-12T01:12:48.604Z,88.60
2019-05-12T01:15:21.711Z,87.90
2019-05-12T01:17:54.581Z,86.70
2019-05-12T01:20:28.418Z,87.00
2019-05-12T01:23:01.447Z,86.60
2019-05-12T01:25:34.249Z,87.60
2019-05-12T01:28:08.080Z,87.70
2019-05-12T01:30:41.743Z,87.70
2019-05-12T01:33:14.577Z,87.50
2019-05-12T01:35:48.324Z,87.90
2019-05-12T01:38:21.450Z,88.40
2019-05-12T01:40:54.276Z,88.60
2019-05-12T01:43:27.814Z,89.40
2019-05-12T01:46:00.807Z,89.70
2019-05-12T01:48:33.696Z,90.00
2019-05-12T01:51:08.371Z,90.90
2019-05-12T01:53:41.403Z,91.30
2019-05-12T01:56:14.198Z,91.50
2019-05-12T01:58:48.427Z,91.50
2019-05-12T02:01:21.407Z,91.90
2019-05-12T02:03:54.212Z,92.00
2019-05-12T02:06:28.178Z,92.00
2019-05-12T02:09:02.922Z,91.20
2019-05-12T02:11:38.030Z,90.60
2019-05-12T02:14:11.014Z,90.40
2019-05-12T02:16:43.867Z,89.40
2019-05-12T02:19:17.874Z,85.30
2019-05-12T02:21:50.897Z,84.00
2019-05-12T02:24:27.403Z,84.50
2019-05-12T02:26:58.547Z,85.10
2019-05-12T02:29:31.327Z,86.20
2019-05-12T02:32:04.179Z,86.00
2019-05-12T02:34:37.006Z,85.90
2019-05-12T02:37:09.826Z,83.40
2019-05-12T02:39:44.917Z,82.50
2019-05-12T02:42:17.362Z,82.90
2019-05-12T02:44:50.179Z,83.30
2019-05-12T02:47:24.100Z,81.80
2019-05-12T02:49:57.144Z,81.90
2019-05-12T02:52:29.969Z,81.00
2019-05-12T02:55:06.095Z,81.10
2019-05-12T02:57:41.131Z,82.40
2019-05-12T03:00:16.020Z,83.50
2019-05-12T03:02:54.790Z,84.50
2019-05-12T03:05:27.918Z,84.90
2019-05-12T03:08:04.846Z,84.40
2019-05-12T03:10:37.709Z,85.10
2019-05-12T03:13:10.468Z,83.90
2019-05-12T03:15:44.569Z,83.10
2019-05-12T03:18:17.551Z,84.30
2019-05-12T03:20:50.374Z,83.80
2019-05-12T03:23:24.802Z,84.90
2019-05-12T03:25:57.916Z,83.40
2019-05-12T03:28:35.254Z,83.10
2019-05-12T03:31:08.217Z,83.80
2019-05-12T03:33:50.003Z,82.90
2019-05-12T03:36:18.215Z,82.60
2019-05-12T03:38:50.906Z,82.80
2019-05-12T03:41:25.092Z,83.30
2019-05-12T03:43:58.081Z,81.90
2019-05-12T03:46:30.918Z,81.60
2019-05-12T03:49:05.222Z,80.30
2019-05-12T03:51:39.468Z,81.30
2019-05-12T03:54:15.275Z,81.90
2019-05-12T03:56:47.270Z,81.20
2019-05-12T03:59:20.143Z,81.60
2019-05-12T04:01:55.192Z,81.50
2019-05-12T04:04:27.797Z,81.80
2019-05-12T04:07:00.666Z,82.80
2019-05-12T04:09:34.905Z,82.80
2019-05-12T04:12:07.913Z,82.70
2019-05-12T04:14:40.730Z,83.00
2019-05-12T04:17:15.013Z,82.00
2019-05-12T04:19:48.065Z,82.10
2019-05-12T04:22:20.879Z,81.60
2019-05-12T04:24:55.134Z,81.90
2019-05-12T04:27:28.265Z,82.70
2019-05-12T04:30:01.102Z,82.60
2019-05-12T04:32:35.815Z,81.10
2019-05-12T04:35:08.733Z,81.50
2019-05-12T04:37:44.683Z,81.40
2019-05-12T04:40:16.613Z,79.90
2019-05-12T04:42:49.488Z,77.50
2019-05-12T04:45:25.247Z,71.60
2019-05-12T04:47:57.045Z,67.70
2019-05-12T04:50:29.840Z,62.90
2019-05-12T04:53:05.995Z,60.70
2019-05-12T04:55:37.472Z,61.20
2019-05-12T04:58:10.288Z,59.20
2019-05-12T05:00:44.791Z,60.60
2019-05-12T05:03:17.851Z,61.90
2019-05-12T05:05:50.655Z,62.70
2019-05-12T05:08:24.341Z,63.80
2019-05-12T05:10:57.413Z,64.70
2019-05-12T05:13:30.232Z,62.50
2019-05-12T05:16:05.444Z,59.10
2019-05-12T05:18:40.732Z,57.00
2019-05-12T05:21:13.849Z,54.40
2019-05-12T05:23:46.979Z,52.10
2019-05-12T05:26:24.744Z,50.40
2019-05-12T05:28:54.552Z,51.30
2019-05-12T05:31:28.134Z,51.90
2019-05-12T05:34:01.134Z,51.40
2019-05-12T05:36:34.686Z,53.80
2019-05-12T05:39:07.912Z,50.90
2019-05-12T05:41:46.490Z,49.90
2019-05-12T05:44:15.487Z,48.90
2019-05-12T05:46:50.288Z,50.00
2019-05-12T05:49:23.854Z,51.10
2019-05-12T05:51:57.537Z,55.10
2019-05-12T05:54:35.659Z,57.90
2019-05-12T05:57:06.229Z,62.80
2019-05-12T05:59:39.270Z,65.30
2019-05-12T06:02:13.834Z,64.60
2019-05-12T06:04:49.807Z,62.80
2019-05-12T06:07:25.519Z,59.50
2019-05-12T06:09:56.453Z,60.20
2019-05-12T06:12:29.516Z,66.10
2019-05-12T06:15:04.233Z,69.40
2019-05-12T06:17:37.186Z,72.70
2019-05-12T06:20:10.225Z,70.40
2019-05-12T06:22:43.767Z,71.80
2019-05-12T06:25:16.750Z,74.80
2019-05-12T06:27:51.143Z,74.20
2019-05-12T06:30:24.414Z,73.30
2019-05-12T06:32:57.241Z,71.80
2019-05-12T06:35:30.884Z,70.20
2019-05-12T06:38:05.293Z,72.20
2019-05-12T06:40:41.320Z,74.30
2019-05-12T06:43:13.889Z,75.50
2019-05-12T06:45:46.906Z,74.00
2019-05-12T06:48:25.771Z,71.80
2019-05-12T06:50:54.485Z,71.50
2019-05-12T06:53:30.907Z,70.50
2019-05-12T06:56:04.479Z,70.90
2019-05-12T06:58:37.372Z,70.00
2019-05-12T07:01:14.482Z,70.80
2019-05-12T07:03:44.989Z,72.70
2019-05-12T07:06:19.741Z,70.60
2019-05-12T07:09:05.401Z,70.40
2019-05-12T07:11:40.550Z,69.30
2019-05-12T07:14:07.787Z,70.40
2019-05-12T07:16:38.680Z,69.70
2019-05-12T07:19:20.626Z,69.50
2019-05-12T07:21:50.850Z,70.10
2019-05-12T07:24:21.089Z,68.40
2019-05-12T07:27:02.742Z,71.40
2019-05-12T07:29:28.692Z,69.50
2019-05-12T07:32:06.886Z,68.60
2019-05-12T07:34:36.554Z,66.40
2019-05-12T07:37:11.697Z,66.80
2019-05-12T07:39:49.389Z,67.90
2019-05-12T07:42:31.590Z,66.20
2019-05-12T07:45:03.791Z,66.10
2019-05-12T07:47:36.139Z,65.70
2019-05-12T07:50:09.887Z,68.00
2019-05-12T07:52:44.315Z,66.10
2019-05-12T07:55:17.251Z,66.30
2019-05-12T07:57:55.418Z,64.00
2019-05-12T08:00:25.717Z,62.90
2019-05-12T08:02:58.867Z,65.50
2019-05-12T08:05:33.711Z,64.20
2019-05-12T08:08:10.915Z,64.40
2019-05-12T08:10:44.288Z,63.80
2019-05-12T08:13:18.731Z,63.60
2019-05-12T08:15:55.604Z,61.80
2019-05-12T08:18:30.744Z,61.60
2019-05-12T08:21:03.817Z,62.70
2019-05-12T08:23:38.061Z,62.10
2019-05-12T08:26:16.178Z,63.10
2019-05-12T08:28:45.906Z,62.70
2019-05-12T08:31:23.413Z,61.20
2019-05-12T08:33:53.871Z,60.90
2019-05-12T08:36:28.036Z,60.70
2019-05-12T08:39:03.842Z,61.10
2019-05-12T08:41:35.718Z,59.00
2019-05-12T08:44:08.541Z,59.80
2019-05-12T08:46:45.682Z,60.20
2019-05-12T08:49:16.189Z,62.80
2019-05-12T08:51:49.507Z,62.90
2019-05-12T08:54:23.816Z,61.00
2019-05-12T08:57:01.048Z,63.80
2019-05-12T08:59:31.513Z,61.10
2019-05-12T09:02:07.021Z,61.60
2019-05-12T09:04:45.407Z,60.30
2019-05-12T09:07:14.385Z,60.30
2019-05-12T09:09:47.206Z,59.60
2019-05-12T09:12:20.228Z,58.00
2019-05-12T09:14:54.620Z,55.40
2019-05-12T09:17:27.600Z,53.00
2019-05-12T09:20:03.558Z,51.10
2019-05-12T09:22:36.316Z,52.80
2019-05-12T09:25:09.174Z,62.10
2019-05-12T09:27:45.619Z,59.50
2019-05-12T09:30:27.046Z,61.50
2019-05-12T09:32:59.917Z,59.00
2019-05-12T09:35:34.775Z,59.40
2019-05-12T09:38:11.453Z,61.10
2019-05-12T09:40:43.817Z,59.00
2019-05-12T09:43:16.851Z,56.50
2019-05-12T09:45:55.715Z,57.60
2019-05-12T09:48:24.765Z,57.40
2019-05-12T09:51:02.665Z,57.40
2019-05-12T09:53:34.079Z,57.90
2019-05-12T09:56:07.088Z,56.70
2019-05-12T09:58:39.971Z,60.50
2019-05-12T10:01:14.029Z,62.70
2019-05-12T10:03:47.062Z,59.30
2019-05-12T10:06:21.357Z,59.90
2019-05-12T10:08:55.052Z,58.30
2019-05-12T10:11:28.051Z,64.50
2019-05-12T10:14:08.507Z,58.40
2019-05-12T10:16:39.505Z,56.40
2019-05-12T10:19:10.420Z,55.80
2019-05-12T10:21:44.019Z,51.30
2019-05-12T10:24:17.080Z,56.40
2019-05-12T10:26:50.701Z,54.40
2019-05-12T10:29:24.359Z,55.90
2019-05-12T10:31:57.541Z,57.90
2019-05-12T10:34:35.807Z,54.90
2019-05-12T10:37:05.220Z,55.20
2019-05-12T10:39:39.187Z,53.80
2019-05-12T10:42:13.727Z,56.60
2019-05-12T10:44:46.668Z,52.30
2019-05-12T10:47:19.534Z,55.10
2019-05-12T10:49:53.805Z,50.60
2019-05-12T10:52:29.511Z,47.30
2019-05-12T10:55:01.875Z,51.80
2019-05-12T10:57:35.201Z,45.40
2019-05-12T11:00:11.291Z,43.90
2019-05-12T11:02:44.269Z,47.80
2019-05-12T11:05:21.179Z,49.20
2019-05-12T11:07:53.964Z,50.30
2019-05-12T11:10:27.071Z,46.30
2019-05-12T11:13:05.793Z,51.20
2019-05-12T11:15:39.486Z,50.50
2019-05-12T11:18:11.772Z,49.60
2019-05-12T11:20:45.108Z,47.60
2019-05-12T11:23:18.095Z,51.00
2019-05-12T11:25:53.213Z,51.10
2019-05-12T11:28:25.832Z,47.10
2019-05-12T11:30:58.792Z,51.10
2019-05-12T11:33:31.659Z,51.10
2019-05-12T11:36:04.518Z,47.40
2019-05-12T11:38:37.403Z,47.40
2019-05-12T11:41:16.068Z,43.60
2019-05-12T11:43:45.074Z,52.10
2019-05-12T11:46:17.948Z,52.00
2019-05-12T11:48:50.793Z,47.20
2019-05-12T11:51:26.997Z,48.50
2019-05-12T11:54:03.395Z,47.30
2019-05-12T11:56:33.590Z,49.20
2019-05-12T11:59:06.649Z,47.60
2019-05-12T12:01:44.890Z,52.40
2019-05-12T12:04:14.511Z,51.20
2019-05-12T12:06:47.392Z,46.70
2019-05-12T12:09:20.229Z,49.80
2019-05-12T12:11:54.696Z,47.30
2019-05-12T12:14:27.836Z,46.50
2019-05-12T12:17:00.691Z,45.70
2019-05-12T12:19:38.928Z,46.80
2019-05-12T12:22:08.423Z,45.30
2019-05-12T12:24:43.524Z,42.30
2019-05-12T12:27:16.012Z,42.80
2019-05-12T12:29:48.845Z,47.70
2019-05-12T12:32:23.270Z,45.20
2019-05-12T12:34:56.245Z,40.80
2019-05-12T12:37:29.157Z,42.90
2019-05-12T12:40:04.215Z,44.80
2019-05-12T12:42:44.172Z,43.50
2019-05-12T12:45:36.647Z,44.70
2019-05-12T12:48:06.677Z,48.10
2019-05-12T12:50:39.565Z,47.10
2019-05-12T12:53:12.933Z,40.70
2019-05-12T12:55:46.013Z,46.70
2019-05-12T12:58:21.048Z,40.50
2019-05-12T13:00:56.708Z,49.00
2019-05-12T13:03:29.969Z,45.20
2019-05-12T13:06:04.770Z,43.30
2019-05-12T13:08:37.891Z,43.40
2019-05-12T13:11:10.765Z,40.10
2019-05-12T13:13:43.627Z,44.80
2019-05-12T13:16:16.495Z,42.60
2019-05-12T13:18:49.416Z,42.00
2019-05-12T13:21:23.380Z,41.50
2019-05-12T13:23:57.202Z,42.20
2019-05-12T13:26:29.922Z,39.70
2019-05-12T13:29:04.043Z,36.80
2019-05-12T13:31:41.153Z,40.40
2019-05-12T13:34:11.632Z,40.80
2019-05-12T13:36:44.348Z,45.20
2019-05-12T13:39:17.112Z,43.80
2019-05-12T13:41:50.337Z,43.30
2019-05-12T13:44:24.520Z,45.10
2019-05-12T13:46:58.896Z,41.30
2019-05-12T13:49:36.194Z,38.50
2019-05-12T13:52:06.749Z,39.10
2019-05-12T13:54:39.484Z,38.40
2019-05-12T13:57:13.350Z,41.10
2019-05-12T13:59:46.292Z,42.00
2019-05-12T14:02:22.141Z,38.80
2019-05-12T14:04:53.685Z,36.80
2019-05-12T14:07:27.519Z,41.70
2019-05-12T14:10:00.281Z,36.80
2019-05-12T14:12:33.019Z,42.60
2019-05-12T14:15:06.185Z,42.10
2019-05-12T14:17:40.427Z,42.10
2019-05-12T14:20:19.720Z,42.60
2019-05-12T14:22:48.329Z,41.70
2019-05-12T14:25:27.559Z,42.80
2019-05-12T14:27:59.488Z,36.70
2019-05-12T14:30:30.282Z,40.40
2019-05-12T14:33:03.519Z,37.20
2019-05-12T14:35:40.929Z,42.70
2019-05-12T14:38:11.006Z,39.20
2019-05-12T14:40:43.782Z,44.90
2019-05-12T14:43:21.270Z,39.10
2019-05-12T14:45:53.917Z,40.70
2019-05-12T14:48:26.364Z,40.30
2019-05-12T14:50:59.337Z,44.90
2019-05-12T14:53:32.851Z,41.60
2019-05-12T14:56:07.023Z,38.60
2019-05-12T14:58:39.943Z,38.40
2019-05-12T15:01:14.251Z,39.50
2019-05-12T15:03:49.277Z,40.70
2019-05-12T15:06:25.717Z,38.40
2019-05-12T15:08:57.110Z,37.10
2019-05-12T15:11:29.988Z,40.20
2019-05-12T15:14:03.197Z,40.40
2019-05-12T15:16:40.390Z,41.10
2019-05-12T15:19:11.093Z,37.80
2019-05-12T15:21:43.993Z,39.10
2019-05-12T15:24:19.059Z,40.20
2019-05-12T15:26:57.543Z,41.80
2019-05-12T15:29:26.861Z,41.70
2019-05-12T15:31:59.862Z,44.90
2019-05-12T15:34:33.801Z,40.80
2019-05-12T15:37:06.795Z,43.00
2019-05-12T15:39:39.661Z,38.80
2019-05-12T15:42:14.218Z,37.20
2019-05-12T15:44:48.321Z,40.70
2019-05-12T15:47:26.654Z,42.00
2019-05-12T15:49:55.987Z,43.00
2019-05-12T15:52:29.877Z,40.70
2019-05-12T15:55:05.001Z,37.80
2019-05-12T15:57:37.856Z,37.80
2019-05-12T16:00:13.819Z,41.50
2019-05-12T16:02:46.359Z,38.60
2019-05-12T16:05:20.115Z,42.30
2019-05-12T16:07:54.153Z,39.10
2019-05-12T16:10:27.044Z,37.30
2019-05-12T16:12:59.979Z,39.30
2019-05-12T16:15:34.030Z,36.20
2019-05-12T16:18:09.930Z,38.60
2019-05-12T16:20:44.195Z,39.10
2019-05-12T16:23:28.370Z,38.50
2019-05-12T16:25:54.108Z,39.30
2019-05-12T16:28:26.845Z,36.20
2019-05-12T16:31:05.009Z,36.30
2019-05-12T16:33:34.775Z,35.60
2019-05-12T16:36:11.521Z,39.30
2019-05-12T16:38:44.549Z,36.70
2019-05-12T16:41:19.794Z,38.40
2019-05-12T16:43:53.739Z,39.50
2019-05-12T16:46:26.701Z,37.70
2019-05-12T16:48:59.644Z,40.10
2019-05-12T16:51:33.335Z,41.80
2019-05-12T16:54:06.545Z,42.00
2019-05-12T16:56:39.607Z,39.80
2019-05-12T16:59:16.737Z,37.80
2019-05-12T17:01:47.755Z,37.40
2019-05-12T17:04:20.804Z,38.10
2019-05-12T17:06:54.050Z,36.40
2019-05-12T17:09:27.082Z,39.40
2019-05-12T17:12:00.271Z,38.30
2019-05-12T17:14:36.584Z,38.30
2019-05-12T17:17:10.732Z,39.10
2019-05-12T17:19:43.500Z,38.90
2019-05-12T17:22:17.730Z,38.20
2019-05-12T17:24:50.792Z,37.20
2019-05-12T17:27:26.855Z,38.00
2019-05-12T17:29:58.888Z,40.50
2019-05-12T17:32:31.766Z,40.10
2019-05-12T17:35:05.384Z,39.00
2019-05-12T17:37:41.328Z,38.20
2019-05-12T17:40:18.337Z,38.70
2019-05-12T17:42:48.099Z,39.00
2019-05-12T17:45:23.362Z,38.40
2019-05-12T17:48:02.701Z,38.00
2019-05-12T17:50:30.698Z,40.60
2019-05-12T17:53:04.541Z,39.10
2019-05-12T17:55:44.354Z,40.40
2019-05-12T17:58:13.870Z,43.40
2019-05-12T18:00:51.530Z,40.60
2019-05-12T18:03:24.677Z,42.80
2019-05-12T18:05:56.413Z,40.90
2019-05-12T18:08:35.629Z,41.30
2019-05-12T18:11:04.437Z,41.00
2019-05-12T18:13:39.933Z,42.70
2019-05-12T18:16:20.468Z,41.70
2019-05-12T18:18:47.124Z,41.00
2019-05-12T18:21:21.890Z,41.20
2019-05-12T18:23:54.790Z,41.80
2019-05-12T18:26:27.750Z,44.30
2019-05-12T18:29:00.644Z,43.20
2019-05-12T18:31:33.666Z,44.60
2019-05-12T18:34:06.552Z,45.70
2019-05-12T18:36:39.680Z,44.80
2019-05-12T18:39:15.273Z,45.40
2019-05-12T18:41:47.495Z,44.60
2019-05-12T18:44:28.795Z,45.70
2019-05-12T18:46:55.162Z,46.20
2019-05-12T18:49:28.039Z,45.60
2019-05-12T18:52:00.925Z,46.80
2019-05-12T18:54:34.528Z,48.40
2019-05-12T18:57:07.644Z,47.80
2019-05-12T18:59:46.141Z,47.60
2019-05-12T19:02:22.823Z,50.10
2019-05-12T19:04:50.336Z,52.80
2019-05-12T19:07:39.001Z,53.10
2019-05-12T19:09:58.121Z,54.30
2019-05-12T19:12:34.824Z,56.90
2019-05-12T19:15:10.163Z,56.10
2019-05-12T19:17:43.671Z,58.00
2019-05-12T19:20:19.902Z,59.90
2019-05-12T19:22:59.337Z,61.30
2019-05-12T19:25:30.152Z,60.60
2019-05-12T19:28:06.934Z,60.80
2019-05-12T19:30:37.705Z,56.40
2019-05-12T19:33:13.085Z,54.90
2019-05-12T19:35:50.317Z,53.90
2019-05-12T19:38:20.325Z,54.60
2019-05-12T19:40:56.247Z,55.30
2019-05-12T19:43:28.521Z,54.10
2019-05-12T19:46:03.649Z,52.40
2019-05-12T19:48:44.299Z,52.30
2019-05-12T19:51:21.961Z,51.40
2019-05-12T19:53:46.899Z,50.30
2019-05-12T19:56:19.809Z,53.60
2019-05-12T19:58:53.863Z,52.60
2019-05-12T20:01:32.678Z,52.50
2019-05-12T20:04:03.620Z,53.20
2019-05-12T20:06:36.588Z,53.90
2019-05-12T20:09:10.991Z,53.70
2019-05-12T20:11:44.082Z,53.30
2019-05-12T20:14:21.351Z,55.30
2019-05-12T20:16:54.272Z,56.70
2019-05-12T20:19:27.703Z,57.40
2019-05-12T20:22:03.351Z,58.60
2019-05-12T20:24:35.621Z,59.50
2019-05-12T20:27:10.539Z,60.40
2019-05-12T20:29:43.681Z,60.40
2019-05-12T20:32:16.592Z,60.30
2019-05-12T20:34:53.017Z,60.30
2019-05-12T20:37:24.261Z,59.60
2019-05-12T20:40:02.148Z,58.70
2019-05-12T20:42:42.453Z,58.20
2019-05-12T20:45:13.394Z,57.30
2019-05-12T20:47:47.652Z,55.40
2019-05-12T20:50:24.314Z,56.00
2019-05-12T20:52:58.918Z,56.30
2019-05-12T20:55:35.561Z,57.10
2019-05-12T20:58:05.133Z,58.80
2019-05-12T21:00:44.398Z,58.40
2019-05-12T21:03:13.988Z,58.60
2019-05-12T21:05:50.734Z,59.90
2019-05-12T21:08:23.624Z,61.10
2019-05-12T21:10:56.645Z,61.10
2019-05-12T21:13:31.736Z,62.90
2019-05-12T21:16:15.721Z,61.70
2019-05-12T21:18:47.851Z,61.30
2019-05-12T21:21:14.433Z,62.50
2019-05-12T21:23:53.864Z,63.40
2019-05-12T21:26:22.100Z,64.50
2019-05-12T21:28:54.973Z,65.20
2019-05-12T21:31:30.904Z,64.10
2019-05-12T21:34:04.510Z,65.60
2019-05-12T21:36:37.294Z,66.30
2019-05-12T21:39:10.651Z,65.90
2019-05-12T21:41:47.429Z,65.40
2019-05-12T21:44:18.442Z,65.60
2019-05-12T21:46:58.956Z,65.90
2019-05-12T21:49:26.087Z,65.40
2019-05-12T21:52:02.965Z,65.50
2019-05-12T21:54:37.670Z,64.30
2019-05-12T21:57:08.550Z,64.30
2019-05-12T21:59:41.416Z,63.70
2019-05-12T22:02:19.704Z,62.90
2019-05-12T22:04:50.188Z,62.60
2019-05-12T22:07:23.870Z,61.90
2019-05-12T22:09:56.737Z,62.00
2019-05-12T22:12:30.386Z,62.10
2019-05-12T22:15:04.513Z,62.30
2019-05-12T22:18:09.094Z,62.90
2019-05-12T22:20:46.102Z,63.50
2019-05-12T22:23:16.717Z,65.60
2019-05-12T22:25:58.016Z,67.80
2019-05-12T22:28:24.451Z,69.10
2019-05-12T22:30:57.306Z,71.30
2019-05-12T22:33:30.166Z,71.00
2019-05-12T22:36:13.882Z,71.60
2019-05-12T22:38:37.935Z,72.60
2019-05-12T22:41:10.799Z,72.80
2019-05-12T22:43:45.925Z,72.50
2019-05-12T22:46:23.269Z,72.50
2019-05-12T22:48:53.640Z,72.80
2019-05-12T22:51:27.021Z,73.90
2019-05-12T22:54:00.431Z,73.10
2019-05-12T22:56:34.842Z,73.10
2019-05-12T22:59:07.799Z,73.10
2019-05-12T23:01:41.903Z,72.80
2019-05-12T23:04:15.333Z,72.90
2019-05-12T23:06:48.520Z,72.90
2019-05-12T23:09:25.873Z,73.00
2019-05-12T23:11:56.585Z,73.60
2019-05-12T23:14:29.591Z,73.80
2019-05-12T23:17:05.707Z,73.70
2019-05-12T23:19:43.022Z,73.70
2019-05-12T23:22:14.208Z,74.70
2019-05-12T23:24:47.126Z,74.50
2019-05-12T23:27:25.216Z,73.30
2019-05-12T23:29:54.757Z,72.60
2019-05-12T23:32:27.564Z,72.10
2019-05-12T23:35:00.440Z,71.30
2019-05-12T23:37:38.452Z,70.70
2019-05-12T23:40:11.406Z,71.80
2019-05-12T23:42:44.675Z,71.80
2019-05-12T23:45:17.524Z,71.60
2019-05-12T23:47:50.388Z,72.10
2019-05-12T23:50:24.112Z,69.00
2019-05-12T23:52:57.168Z,67.00
2019-05-12T23:55:30.277Z,66.00
2019-05-12T23:58:04.317Z,66.40
